• Join FlightAware (Why Join?)
  • Login
  • US Flag 
03:53PM EDT


 

Airport Tracker/Info


-or-


 

Live Flight TrackerFlight Track Log ✈ VET90 ✈ 15-Sep-2013 ✈ KGMU - KMDQ

Flight Track Log - Related Links

Times and Time Zones

All times are in EDT time to prevent confusion due to time zone crossing. See the VET90 flight status page for this flight to view local times or setup timezone preferences in your user account.

Time Position Orientation Groundspeed Altitude Reporting Facility
EDT Latitude Longitude Course Direction KTS MPH feet Rate Location/Type
05:47PM 34.9072 -82.3217 277° West 153 176 3,300  Level Atlanta Center
05:48PM 34.9283 -82.3514 311° West 142 163 4,900 1,500 Climbing Atlanta Center
05:49PM 34.9269 -82.3997 268° West 149 171 6,300 1,320 Climbing Atlanta Center
05:50PM 34.9256 -82.4453 268° West 135 155 7,600 1,140 Climbing Atlanta Center
05:51PM 34.9219 -82.5011 266° West 145 167 8,600 1,020 Climbing Atlanta Center
05:52PM 34.8551 -82.7289 277° West  Level Estimated
05:52PM 34.9206 -82.5492 268° West 151 174 9,700  Level Atlanta Center
05:53PM 34.9211 -82.5975 271° West 161 185 10,800 1,020 Climbing Atlanta Center
05:54PM 34.9239 -82.6531 274° West 161 185 11,800 1,020 Climbing Atlanta Center
05:55PM 34.9244 -82.7064 271° West 156 180 12,900 1,080 Climbing Atlanta Center
05:56PM 34.9250 -82.7594 271° West 156 180 14,000 900 Climbing Atlanta Center
05:57PM 34.9256 -82.8125 271° West 162 186 14,800 900 Climbing Atlanta Center
05:58PM 34.9261 -82.8683 271° West 162 186 15,900 600 Climbing Atlanta Center
05:59PM 34.9244 -82.9317 268° West 160 184 16,000  Climbing Atlanta Center
06:00PM 34.9294 -82.9950 276° West 180 207 16,000  Level Atlanta Center
06:01PM 34.9300 -83.0711 271° West 206 237 16,000  Level Atlanta Center
06:02PM 34.9306 -83.1419 271° West 212 244 16,000  Level Atlanta Center
06:03PM 34.9331 -83.2103 273° West 218 251 16,000  Level Atlanta Center
06:04PM 34.9356 -83.2836 272° West 213 245 16,000  Level Atlanta Center
06:05PM 34.9361 -83.3572 271° West 219 252 16,000  Level Atlanta Center
06:06PM 34.9364 -83.4308 270° West 219 252 16,000  Level Atlanta Center
06:07PM 34.9389 -83.5017 272° West 215 247 16,000  Level Atlanta Center
06:08PM 34.9392 -83.5803 270° West 225 259 16,000  Level Atlanta Center
06:09PM 34.9414 -83.6536 272° West 225 259 16,000  Level Atlanta Center
06:10PM 34.9417 -83.7272 270° West 225 259 16,000  Level Atlanta Center
06:11PM 34.9419 -83.8006 270° West 225 259 16,000  Level Atlanta Center
06:12PM 34.9442 -83.8742 272° West 225 259 16,100  Climbing Atlanta Center
06:13PM 34.9442 -83.9475 270° West 219 252 16,100  Level Atlanta Center
06:14PM 34.9464 -84.0211 272° West 219 252 16,100  Level Atlanta Center
06:15PM 34.9464 -84.0944 270° West 219 252 16,100  Level Atlanta Center
06:16PM 34.9483 -84.1706 272° West 219 252 16,100  Level Atlanta Center
06:17PM 34.9503 -84.2442 272° West 219 252 16,100  Level Atlanta Center
06:18PM 34.9481 -84.3200 268° West 219 252 16,100  Level Atlanta Center
06:19PM 34.9519 -84.3936 274° West 219 252 16,100  Level Atlanta Center
06:20PM 34.9517 -84.4669 270° West 219 252 16,100  Level Atlanta Center
06:21PM 34.9536 -84.5406 272° West 219 252 16,100  Level Atlanta Center
06:22PM 34.9553 -84.6139 272° West 219 252 16,100  Level Atlanta Center
06:23PM 34.9572 -84.6900 272° West 219 252 16,100  Level Atlanta Center
06:24PM 34.9567 -84.7636 269° West 219 252 16,100  Level Atlanta Center
06:25PM 34.9583 -84.8397 272° West 219 252 16,100  Level Atlanta Center
06:26PM 34.9578 -84.9181 270° West 219 252 16,100  Level Atlanta Center
06:27PM 34.9592 -84.9942 271° West 219 252 16,100  Level Atlanta Center
06:28PM 34.9608 -85.0678 272° West 219 252 16,100  Level Atlanta Center
06:30PM 34.9533 -85.2267 267° West 214 246 16,100 -300 Level Memphis Center
06:31PM 34.9439 -85.3033 261° West 220 253 15,200 -1,140 Descending Memphis Center
06:32PM 34.9350 -85.3925 263° West 239 275 13,900 -1,380 Descending Memphis Center
06:33PM 34.9258 -85.4764 262° West 254 292 12,500 -1,380 Descending Memphis Center
06:34PM 34.9189 -85.5631 264° West 259 298 11,200 -780 Descending Memphis Center
06:35PM 34.9094 -85.6444 262° West 254 292 11,000 -120 Descending Memphis Center
06:36PM 34.9017 -85.7133 262° West 233 268 11,000  Level Memphis Center
06:37PM 34.8936 -85.7822 262° West 222 255 11,000  Level Memphis Center
06:38PM 34.8858 -85.8533 262° West 222 255 11,000  Level Memphis Center
06:39PM 34.8781 -85.9272 263° West 222 255 11,000 -300 Level Memphis Center
06:40PM 34.8683 -86.0011 261° West 222 255 10,400 -480 Descending Memphis Center
06:41PM 34.8667 -86.0747 268° West 222 255 10,100 -300 Descending Memphis Center
06:42PM 34.8608 -86.1458 264° West 222 255 9,900 -900 Descending Memphis Center
06:43PM 34.8531 -86.2297 264° West 222 255 8,300 -2,100 Descending Memphis Center
06:44PM 34.8619 -86.3078 278° West 235 270 5,800 -2,400 Descending Memphis Center
06:45PM 34.8583 -86.3939 267° West 235 270 3,600 -1,200 Descending Memphis Center
06:46PM 34.8564 -86.4625 268° West 226 260 3,500 -120 Descending Memphis Center
06:54PM 34.8614 -86.5568 270° West  Level Estimated
07:01PM 34.8614 -86.5575 39° Northeast  Level Estimated
07:02PM 34.8614 -86.5575 39° Northeast  Level Estimated
07:03PM 34.8614 -86.5575 39° Northeast  Level Estimated
07:04PM 34.8614 -86.5575 39° Northeast  Level Estimated
07:05PM 34.8614 -86.5575 39° Northeast  Level Estimated
07:06PM 34.8614 -86.5575 39° Northeast  Level Estimated
07:07PM 34.8614 -86.5575 39° Northeast  Level Estimated